createdAt,value
2019-01-12T00:01:34.461Z,100.00
2019-01-12T00:04:06.070Z,100.00
2019-01-12T00:06:37.710Z,100.00
2019-01-12T00:09:10.326Z,100.00
2019-01-12T00:11:41.831Z,100.00
2019-01-12T00:14:13.456Z,100.00
2019-01-12T00:16:44.963Z,100.00
2019-01-12T00:19:16.435Z,100.00
2019-01-12T00:21:49.005Z,100.00
2019-01-12T00:24:20.505Z,100.00
2019-01-12T00:26:51.993Z,100.00
2019-01-12T00:29:23.576Z,100.00
2019-01-12T00:31:55.148Z,100.00
2019-01-12T00:34:26.709Z,100.00
2019-01-12T00:36:58.416Z,100.00
2019-01-12T00:39:29.855Z,100.00
2019-01-12T00:42:01.342Z,100.00
2019-01-12T00:44:32.820Z,100.00
2019-01-12T00:47:04.477Z,100.00
2019-01-12T00:49:36.036Z,100.00
2019-01-12T00:52:07.647Z,100.00
2019-01-12T00:54:39.135Z,100.00
2019-01-12T00:57:10.783Z,100.00
2019-01-12T00:59:42.306Z,100.00
2019-01-12T01:02:13.776Z,100.00
2019-01-12T01:04:45.400Z,100.00
2019-01-12T01:07:17.408Z,100.00
2019-01-12T01:09:49.036Z,100.00
2019-01-12T01:12:20.643Z,100.00
2019-01-12T01:14:52.264Z,100.00
2019-01-12T01:17:23.676Z,100.00
2019-01-12T01:19:55.292Z,100.00
2019-01-12T01:22:26.866Z,100.00
2019-01-12T01:24:58.470Z,100.00
2019-01-12T01:27:30.168Z,100.00
2019-01-12T01:30:01.706Z,100.00
2019-01-12T01:32:33.298Z,100.00
2019-01-12T01:35:05.396Z,100.00
2019-01-12T01:37:36.817Z,100.00
2019-01-12T01:40:10.737Z,100.00
2019-01-12T01:42:42.145Z,100.00
2019-01-12T01:45:14.851Z,100.00
2019-01-12T01:47:46.312Z,100.00
2019-01-12T01:50:17.898Z,100.00
2019-01-12T01:52:50.805Z,100.00
2019-01-12T01:55:23.193Z,100.00
2019-01-12T01:57:54.785Z,100.00
2019-01-12T02:00:27.416Z,100.00
2019-01-12T02:02:59.066Z,100.00
2019-01-12T02:05:32.176Z,100.00
2019-01-12T02:08:03.900Z,100.00
2019-01-12T02:10:35.487Z,100.00
2019-01-12T02:13:07.163Z,100.00
2019-01-12T02:15:38.798Z,100.00
2019-01-12T02:18:10.296Z,100.00
2019-01-12T02:20:41.831Z,100.00
2019-01-12T02:23:13.366Z,100.00
2019-01-12T02:25:45.031Z,100.00
2019-01-12T02:28:16.724Z,100.00
2019-01-12T02:30:48.430Z,100.00
2019-01-12T02:33:20.160Z,100.00
2019-01-12T02:35:51.782Z,100.00
2019-01-12T02:38:23.448Z,100.00
2019-01-12T02:40:54.997Z,100.00
2019-01-12T02:43:26.408Z,100.00
2019-01-12T02:45:58.003Z,100.00
2019-01-12T02:48:29.441Z,100.00
2019-01-12T02:51:01.027Z,100.00
2019-01-12T02:53:32.496Z,100.00
2019-01-12T02:56:04.097Z,100.00
2019-01-12T02:58:35.622Z,100.00
2019-01-12T03:01:07.149Z,100.00
2019-01-12T03:03:38.575Z,100.00
2019-01-12T03:06:10.180Z,100.00
2019-01-12T03:08:41.765Z,100.00
2019-01-12T03:11:13.312Z,100.00
2019-01-12T03:13:44.814Z,100.00
2019-01-12T03:16:16.526Z,100.00
2019-01-12T03:18:47.959Z,100.00
2019-01-12T03:21:19.540Z,100.00
2019-01-12T03:23:51.044Z,100.00
2019-01-12T03:26:22.613Z,100.00
2019-01-12T03:28:54.209Z,100.00
2019-01-12T03:31:25.754Z,100.00
2019-01-12T03:33:57.313Z,100.00
2019-01-12T03:36:28.870Z,100.00
2019-01-12T03:39:00.351Z,100.00
2019-01-12T03:41:32.009Z,100.00
2019-01-12T03:44:03.572Z,100.00
2019-01-12T03:46:35.223Z,100.00
2019-01-12T03:49:06.947Z,100.00
2019-01-12T03:51:38.556Z,100.00
2019-01-12T03:54:10.228Z,100.00
2019-01-12T03:56:41.824Z,100.00
2019-01-12T03:59:13.487Z,100.00
2019-01-12T04:01:45.150Z,100.00
2019-01-12T04:04:16.837Z,100.00
2019-01-12T04:06:48.641Z,100.00
2019-01-12T04:09:20.275Z,100.00
2019-01-12T04:11:51.950Z,100.00
2019-01-12T04:14:23.518Z,100.00
2019-01-12T04:16:55.148Z,100.00
2019-01-12T04:19:26.611Z,100.00
2019-01-12T04:21:58.132Z,100.00
2019-01-12T04:24:29.743Z,100.00
2019-01-12T04:27:01.279Z,100.00
2019-01-12T04:29:32.759Z,100.00
2019-01-12T04:32:04.418Z,100.00
2019-01-12T04:34:35.957Z,100.00
2019-01-12T04:37:07.488Z,100.00
2019-01-12T04:39:38.939Z,100.00
2019-01-12T04:42:10.508Z,100.00
2019-01-12T04:44:42.020Z,100.00
2019-01-12T04:47:13.547Z,100.00
2019-01-12T04:49:45.163Z,100.00
2019-01-12T04:52:16.715Z,100.00
2019-01-12T04:54:48.409Z,100.00
2019-01-12T04:57:19.866Z,100.00
2019-01-12T04:59:51.511Z,100.00
2019-01-12T05:02:23.076Z,100.00
2019-01-12T05:04:54.641Z,100.00
2019-01-12T05:07:26.213Z,100.00
2019-01-12T05:09:57.941Z,100.00
2019-01-12T05:12:29.643Z,100.00
2019-01-12T05:15:02.564Z,100.00
2019-01-12T05:17:34.264Z,100.00
2019-01-12T05:20:08.800Z,100.00
2019-01-12T05:22:40.701Z,100.00
2019-01-12T05:25:12.723Z,100.00
2019-01-12T05:27:44.571Z,100.00
2019-01-12T05:30:18.902Z,100.00
2019-01-12T05:32:51.289Z,100.00
2019-01-12T05:35:23.752Z,100.00
2019-01-12T05:37:56.867Z,100.00
2019-01-12T05:40:28.962Z,100.00
2019-01-12T05:43:00.782Z,100.00
2019-01-12T05:45:32.787Z,100.00
2019-01-12T05:48:04.754Z,100.00
2019-01-12T05:50:36.515Z,100.00
2019-01-12T05:53:08.129Z,100.00
2019-01-12T05:55:39.838Z,100.00
2019-01-12T05:58:11.843Z,100.00
2019-01-12T06:00:43.817Z,100.00
2019-01-12T06:03:15.307Z,100.00
2019-01-12T06:05:46.785Z,100.00
2019-01-12T06:08:18.661Z,100.00
2019-01-12T06:10:51.076Z,100.00
2019-01-12T06:13:22.605Z,100.00
2019-01-12T06:15:54.397Z,100.00
2019-01-12T06:18:26.690Z,100.00
2019-01-12T06:20:58.460Z,100.00
2019-01-12T06:23:30.518Z,100.00
2019-01-12T06:26:04.038Z,100.00
2019-01-12T06:28:36.013Z,100.00
2019-01-12T06:31:07.581Z,100.00
2019-01-12T06:33:39.256Z,100.00
2019-01-12T06:36:11.126Z,100.00
2019-01-12T06:38:42.704Z,100.00
2019-01-12T06:41:14.572Z,100.00
2019-01-12T06:43:46.311Z,100.00
2019-01-12T06:46:18.037Z,100.00
2019-01-12T06:48:49.871Z,100.00
2019-01-12T06:51:21.427Z,100.00
2019-01-12T06:53:53.260Z,100.00
2019-01-12T06:56:24.871Z,100.00
2019-01-12T06:58:56.588Z,100.00
2019-01-12T07:01:28.414Z,100.00
2019-01-12T07:04:00.249Z,100.00
2019-01-12T07:06:31.883Z,100.00
2019-01-12T07:09:04.929Z,100.00
2019-01-12T07:11:36.883Z,100.00
2019-01-12T07:14:08.755Z,100.00
2019-01-12T07:16:40.902Z,100.00
2019-01-12T07:19:12.904Z,100.00
2019-01-12T07:21:45.288Z,100.00
2019-01-12T07:24:17.024Z,100.00
2019-01-12T07:26:49.092Z,100.00
2019-01-12T07:29:21.110Z,100.00
2019-01-12T07:31:53.280Z,100.00
2019-01-12T07:34:25.064Z,100.00
2019-01-12T07:36:56.978Z,100.00
2019-01-12T07:39:28.899Z,100.00
2019-01-12T07:42:01.150Z,100.00
2019-01-12T07:44:33.054Z,100.00
2019-01-12T07:47:06.291Z,100.00
2019-01-12T07:49:39.811Z,100.00
2019-01-12T07:52:13.011Z,100.00
2019-01-12T07:54:45.330Z,100.00
2019-01-12T07:57:19.115Z,100.00
2019-01-12T07:59:51.793Z,100.00
2019-01-12T08:02:25.411Z,100.00
2019-01-12T08:04:57.586Z,100.00
2019-01-12T08:07:29.963Z,100.00
2019-01-12T08:10:03.693Z,100.00
2019-01-12T08:12:35.871Z,100.00
2019-01-12T08:15:08.562Z,100.00
2019-01-12T08:17:40.864Z,100.00
2019-01-12T08:20:14.972Z,100.00
2019-01-12T08:22:47.393Z,100.00
2019-01-12T08:25:19.863Z,100.00
2019-01-12T08:27:52.581Z,100.00
2019-01-12T08:30:25.262Z,100.00
2019-01-12T08:32:58.442Z,100.00
2019-01-12T08:35:31.113Z,100.00
2019-01-12T08:38:03.592Z,100.00
2019-01-12T08:40:36.022Z,100.00
2019-01-12T08:43:08.191Z,100.00
2019-01-12T08:45:40.405Z,100.00
2019-01-12T08:48:13.290Z,100.00
2019-01-12T08:50:45.924Z,100.00
2019-01-12T08:53:17.882Z,100.00
2019-01-12T08:55:51.762Z,100.00
2019-01-12T08:58:24.073Z,100.00
2019-01-12T09:00:56.402Z,100.00
2019-01-12T09:03:28.792Z,100.00
2019-01-12T09:06:00.882Z,100.00
2019-01-12T09:08:33.993Z,100.00
2019-01-12T09:11:06.262Z,100.00
2019-01-12T09:13:38.663Z,100.00
2019-01-12T09:16:22.182Z,100.00
2019-01-12T09:18:54.792Z,100.00
2019-01-12T09:21:27.233Z,100.00
2019-01-12T09:23:59.863Z,100.00
2019-01-12T09:26:32.451Z,100.00
2019-01-12T09:29:04.951Z,100.00
2019-01-12T09:31:37.324Z,100.00
2019-01-12T09:34:09.824Z,100.00
2019-01-12T09:36:42.124Z,100.00
2019-01-12T09:39:14.445Z,100.00
2019-01-12T09:41:46.524Z,100.00
2019-01-12T09:44:18.835Z,100.00
2019-01-12T09:46:51.222Z,100.00
2019-01-12T09:49:24.926Z,100.00
2019-01-12T09:51:56.924Z,100.00
2019-01-12T09:54:29.196Z,100.00
2019-01-12T09:57:01.305Z,100.00
2019-01-12T09:59:33.542Z,100.00
2019-01-12T10:02:06.026Z,100.00
2019-01-12T10:04:38.446Z,100.00
2019-01-12T10:07:10.714Z,100.00
2019-01-12T10:09:43.295Z,100.00
2019-01-12T10:12:15.564Z,100.00
2019-01-12T10:14:48.045Z,100.00
2019-01-12T10:17:20.306Z,100.00
2019-01-12T10:19:52.646Z,100.00
2019-01-12T10:22:28.523Z,100.00
2019-01-12T10:24:58.705Z,100.00
2019-01-12T10:27:32.244Z,100.00
2019-01-12T10:30:05.994Z,100.00
2019-01-12T10:32:38.374Z,99.96
2019-01-12T10:35:10.894Z,99.51
2019-01-12T10:37:43.578Z,98.49
2019-01-12T10:40:16.825Z,98.33
2019-01-12T10:42:50.494Z,99.84
2019-01-12T10:45:25.273Z,100.00
2019-01-12T10:47:59.675Z,99.12
2019-01-12T10:50:36.575Z,94.68
2019-01-12T10:53:09.175Z,96.29
2019-01-12T10:55:41.455Z,100.00
2019-01-12T10:58:14.602Z,100.00
2019-01-12T11:00:47.807Z,99.28
2019-01-12T11:03:21.654Z,97.48
2019-01-12T11:05:56.514Z,96.20
2019-01-12T11:08:29.073Z,95.76
2019-01-12T11:11:01.364Z,93.85
2019-01-12T11:13:33.875Z,94.41
2019-01-12T11:16:06.354Z,94.69
2019-01-12T11:18:39.932Z,98.37
2019-01-12T11:21:25.533Z,99.54
2019-01-12T11:24:00.543Z,99.38
2019-01-12T11:26:34.905Z,100.00
2019-01-12T11:29:09.336Z,95.24
2019-01-12T11:31:43.467Z,93.39
2019-01-12T11:34:20.754Z,93.06
2019-01-12T11:37:00.234Z,94.01
2019-01-12T11:39:32.843Z,94.08
2019-01-12T11:42:05.924Z,96.96
2019-01-12T11:44:38.484Z,96.83
2019-01-12T11:47:11.134Z,97.41
2019-01-12T11:49:43.795Z,99.67
2019-01-12T11:52:16.224Z,100.00
2019-01-12T11:54:48.505Z,97.47
2019-01-12T11:57:21.145Z,97.99
2019-01-12T12:01:34.573Z,98.69
2019-01-12T12:04:07.132Z,100.00
2019-01-12T12:06:39.312Z,99.03
2019-01-12T12:09:11.744Z,100.00
2019-01-12T12:11:44.306Z,100.00
2019-01-12T12:14:16.596Z,100.00
2019-01-12T12:28:12.203Z,100.00
2019-01-12T12:31:03.822Z,100.00
2019-01-12T12:33:50.204Z,100.00
2019-01-12T12:36:26.682Z,100.00
2019-01-12T12:39:09.714Z,100.00
2019-01-12T12:41:42.712Z,100.00
2019-01-12T12:44:21.226Z,100.00
2019-01-12T12:46:53.968Z,100.00
2019-01-12T12:49:34.998Z,100.00
2019-01-12T12:52:16.296Z,100.00
2019-01-12T12:54:50.856Z,100.00
2019-01-12T12:57:25.676Z,100.00
2019-01-12T13:00:01.215Z,100.00
2019-01-12T13:02:33.931Z,100.00
2019-01-12T13:05:09.413Z,100.00
2019-01-12T13:07:42.675Z,100.00
2019-01-12T13:10:20.140Z,100.00
2019-01-12T13:12:53.750Z,100.00
2019-01-12T13:15:26.790Z,100.00
2019-01-12T13:17:59.190Z,100.00
2019-01-12T13:20:31.663Z,100.00
2019-01-12T13:23:04.411Z,100.00
2019-01-12T13:25:40.761Z,100.00
2019-01-12T13:28:13.610Z,100.00
2019-01-12T13:30:50.063Z,100.00
2019-01-12T13:33:22.671Z,100.00
2019-01-12T13:35:55.103Z,100.00
2019-01-12T13:38:27.260Z,100.00
2019-01-12T13:40:59.803Z,100.00
2019-01-12T13:43:31.971Z,100.00
2019-01-12T13:46:04.302Z,100.00
2019-01-12T13:48:36.522Z,100.00
2019-01-12T13:51:08.829Z,100.00
2019-01-12T13:53:41.021Z,100.00
2019-01-12T13:56:13.484Z,100.00
2019-01-12T13:58:45.762Z,100.00
2019-01-12T14:01:18.281Z,100.00
2019-01-12T14:03:50.770Z,100.00
2019-01-12T14:06:23.540Z,100.00
2019-01-12T14:08:58.771Z,100.00
2019-01-12T14:11:31.703Z,100.00
2019-01-12T14:14:09.540Z,100.00
2019-01-12T14:19:52.240Z,100.00
2019-01-12T14:22:24.688Z,100.00
2019-01-12T14:25:02.239Z,100.00
2019-01-12T14:27:35.310Z,100.00
2019-01-12T14:30:15.860Z,100.00
2019-01-12T14:32:49.419Z,100.00
2019-01-12T14:35:28.249Z,100.00
2019-01-12T14:38:06.401Z,100.00
2019-01-12T14:40:46.258Z,100.00
2019-01-12T14:43:20.378Z,100.00
2019-01-12T14:45:56.260Z,100.00
2019-01-12T14:48:32.458Z,100.00
2019-01-12T14:51:05.143Z,100.00
2019-01-12T14:53:37.778Z,100.00
2019-01-12T14:56:10.229Z,100.00
2019-01-12T14:58:42.719Z,100.00
2019-01-12T15:01:15.002Z,100.00
2019-01-12T15:03:47.359Z,100.00
2019-01-12T15:06:19.639Z,100.00
2019-01-12T15:08:52.170Z,100.00
2019-01-12T15:11:24.321Z,100.00
2019-01-12T15:13:56.712Z,100.00
2019-01-12T15:16:28.830Z,100.00
2019-01-12T15:19:01.050Z,100.00
2019-01-12T15:21:33.261Z,100.00
2019-01-12T15:24:05.748Z,100.00
2019-01-12T15:26:38.071Z,100.00
2019-01-12T15:29:10.431Z,100.00
2019-01-12T15:31:43.041Z,100.00
2019-01-12T15:34:15.340Z,100.00
2019-01-12T15:36:47.513Z,100.00
2019-01-12T15:39:19.721Z,100.00
2019-01-12T15:41:51.941Z,100.00
2019-01-12T15:44:24.350Z,100.00
2019-01-12T15:46:56.760Z,100.00
2019-01-12T15:49:29.040Z,100.00
2019-01-12T15:52:01.312Z,100.00
2019-01-12T15:54:33.581Z,100.00
2019-01-12T15:57:06.398Z,100.00
2019-01-12T15:59:38.601Z,100.00
2019-01-12T16:02:11.510Z,100.00
2019-01-12T16:04:43.614Z,100.00
2019-01-12T16:07:16.021Z,100.00
2019-01-12T16:09:48.261Z,100.00
2019-01-12T16:12:20.670Z,100.00
2019-01-12T16:14:52.930Z,100.00
2019-01-12T16:17:25.102Z,100.00
2019-01-12T16:19:57.481Z,100.00
2019-01-12T16:22:29.523Z,100.00
2019-01-12T16:25:01.718Z,100.00
2019-01-12T16:27:33.869Z,100.00
2019-01-12T16:30:07.561Z,100.00
2019-01-12T16:32:39.990Z,100.00
2019-01-12T16:35:12.210Z,100.00
2019-01-12T16:37:45.371Z,100.00
2019-01-12T16:40:20.008Z,100.00
2019-01-12T16:42:52.731Z,100.00
2019-01-12T16:45:25.109Z,100.00
2019-01-12T16:47:57.459Z,100.00
2019-01-12T16:50:29.879Z,100.00
2019-01-12T16:53:02.031Z,100.00
2019-01-12T16:55:35.713Z,100.00
2019-01-12T16:58:08.180Z,100.00
2019-01-12T17:00:40.851Z,100.00
2019-01-12T17:03:12.992Z,100.00
2019-01-12T17:05:45.328Z,100.00
2019-01-12T17:08:18.561Z,100.00
2019-01-12T17:10:50.779Z,100.00
2019-01-12T17:13:22.918Z,100.00
2019-01-12T17:15:55.150Z,100.00
2019-01-12T17:18:27.300Z,100.00
2019-01-12T17:20:59.470Z,100.00
2019-01-12T17:23:31.481Z,100.00
2019-01-12T17:26:03.802Z,100.00
2019-01-12T17:28:37.366Z,100.00
2019-01-12T17:31:10.054Z,100.00
2019-01-12T17:33:42.221Z,100.00
2019-01-12T17:36:14.651Z,100.00
2019-01-12T17:38:46.820Z,100.00
2019-01-12T17:41:19.092Z,100.00
2019-01-12T17:43:51.403Z,100.00
2019-01-12T17:46:23.811Z,100.00
2019-01-12T17:48:56.871Z,100.00
2019-01-12T17:51:31.110Z,100.00
2019-01-12T17:54:04.964Z,100.00
2019-01-12T17:56:36.964Z,100.00
2019-01-12T17:59:09.990Z,100.00
2019-01-12T18:01:43.522Z,100.00
2019-01-12T18:04:15.992Z,100.00
2019-01-12T18:06:50.070Z,100.00
2019-01-12T18:09:22.137Z,100.00
2019-01-12T18:11:54.322Z,100.00
2019-01-12T18:14:26.688Z,100.00
2019-01-12T18:17:01.423Z,100.00
2019-01-12T18:19:33.968Z,100.00
2019-01-12T18:22:07.420Z,100.00
2019-01-12T18:24:40.162Z,100.00
2019-01-12T18:27:12.676Z,100.00
2019-01-12T18:29:47.142Z,100.00
2019-01-12T18:32:19.909Z,100.00
2019-01-12T18:34:52.008Z,100.00
2019-01-12T18:37:24.117Z,100.00
2019-01-12T18:39:57.085Z,100.00
2019-01-12T18:42:29.155Z,100.00
2019-01-12T18:45:01.340Z,100.00
2019-01-12T18:47:33.366Z,100.00
2019-01-12T18:50:05.840Z,100.00
2019-01-12T18:52:37.856Z,100.00
2019-01-12T18:55:10.638Z,100.00
2019-01-12T18:57:42.776Z,100.00
2019-01-12T19:00:19.475Z,100.00
2019-01-12T19:02:51.825Z,100.00
2019-01-12T19:05:24.864Z,100.00
2019-01-12T19:07:57.211Z,100.00
2019-01-12T19:10:29.489Z,100.00
2019-01-12T19:13:02.346Z,100.00
2019-01-12T19:15:34.672Z,100.00
2019-01-12T19:18:06.843Z,100.00
2019-01-12T19:20:39.699Z,100.00
2019-01-12T19:23:11.857Z,100.00
2019-01-12T19:25:43.839Z,100.00
2019-01-12T19:28:15.774Z,100.00
2019-01-12T19:30:47.677Z,100.00
2019-01-12T19:33:20.026Z,100.00
2019-01-12T19:35:52.208Z,100.00
2019-01-12T19:38:24.372Z,100.00
2019-01-12T19:40:56.609Z,100.00
2019-01-12T19:43:28.954Z,100.00
2019-01-12T19:46:01.048Z,100.00
2019-01-12T19:48:33.078Z,100.00
2019-01-12T19:51:05.255Z,100.00
2019-01-12T19:53:37.188Z,100.00
2019-01-12T19:56:08.915Z,100.00
2019-01-12T19:58:40.708Z,100.00
2019-01-12T20:01:12.286Z,100.00
2019-01-12T20:03:44.269Z,100.00
2019-01-12T20:06:17.113Z,100.00
2019-01-12T20:08:49.493Z,100.00
2019-01-12T20:11:21.133Z,100.00
2019-01-12T20:13:53.076Z,100.00
2019-01-12T20:16:24.716Z,100.00
2019-01-12T20:18:56.505Z,100.00
2019-01-12T20:21:28.224Z,100.00
2019-01-12T20:24:00.109Z,100.00
2019-01-12T20:26:31.724Z,100.00
2019-01-12T20:29:03.826Z,100.00
2019-01-12T20:32:10.143Z,100.00
2019-01-12T20:35:05.891Z,100.00
2019-01-12T20:38:19.706Z,100.00
2019-01-12T20:41:43.791Z,100.00
2019-01-12T20:45:13.870Z,100.00
2019-01-12T20:48:13.111Z,100.00
2019-01-12T20:51:39.868Z,100.00
2019-01-12T20:55:19.453Z,100.00
2019-01-12T20:58:21.785Z,100.00
2019-01-12T21:01:34.338Z,100.00
2019-01-12T21:04:49.036Z,100.00
2019-01-12T21:08:01.182Z,100.00
2019-01-12T21:11:27.170Z,100.00
2019-01-12T21:14:50.512Z,100.00
2019-01-12T21:17:22.446Z,100.00
2019-01-12T21:19:54.125Z,100.00
2019-01-12T21:22:25.828Z,100.00
2019-01-12T21:24:57.407Z,100.00
2019-01-12T21:27:29.088Z,100.00
2019-01-12T21:30:00.565Z,100.00
2019-01-12T21:32:32.091Z,100.00
2019-01-12T21:35:03.792Z,100.00
2019-01-12T21:37:36.705Z,100.00
2019-01-12T21:40:09.192Z,100.00
2019-01-12T21:42:40.713Z,100.00
2019-01-12T21:45:13.865Z,100.00
2019-01-12T21:47:45.348Z,100.00
2019-01-12T21:50:16.893Z,100.00
2019-01-12T21:52:48.334Z,100.00
2019-01-12T21:55:20.562Z,100.00
2019-01-12T21:57:52.158Z,100.00
2019-01-12T22:00:24.799Z,100.00
2019-01-12T22:02:56.611Z,100.00
2019-01-12T22:05:28.968Z,100.00
2019-01-12T22:08:00.648Z,100.00
2019-01-12T22:10:32.309Z,100.00
2019-01-12T22:13:03.862Z,100.00
2019-01-12T22:15:35.463Z,100.00
2019-01-12T22:18:07.043Z,100.00
2019-01-12T22:20:38.590Z,100.00
2019-01-12T22:23:10.143Z,100.00
2019-01-12T22:25:41.711Z,100.00
2019-01-12T22:28:13.233Z,100.00
2019-01-12T22:30:44.763Z,100.00
2019-01-12T22:33:16.373Z,100.00
2019-01-12T22:35:48.062Z,100.00
2019-01-12T22:38:19.677Z,100.00
2019-01-12T22:40:51.290Z,100.00
2019-01-12T22:43:22.953Z,100.00
2019-01-12T22:45:54.597Z,100.00
2019-01-12T22:48:26.182Z,100.00
2019-01-12T22:50:57.681Z,100.00
2019-01-12T22:53:29.149Z,100.00
2019-01-12T22:56:00.698Z,100.00
2019-01-12T22:58:33.829Z,100.00
2019-01-12T23:01:36.139Z,100.00
2019-01-12T23:04:07.818Z,100.00
2019-01-12T23:06:39.394Z,100.00
2019-01-12T23:09:13.502Z,100.00
2019-01-12T23:11:45.120Z,100.00
2019-01-12T23:14:16.909Z,100.00
2019-01-12T23:16:48.382Z,100.00
2019-01-12T23:19:20.036Z,100.00
2019-01-12T23:21:51.497Z,100.00
2019-01-12T23:24:23.061Z,100.00
2019-01-12T23:26:55.773Z,100.00
2019-01-12T23:29:27.268Z,100.00
2019-01-12T23:31:58.755Z,100.00
2019-01-12T23:34:30.400Z,100.00
2019-01-12T23:37:02.004Z,100.00
2019-01-12T23:39:33.562Z,100.00
2019-01-12T23:42:05.065Z,100.00
2019-01-12T23:44:36.722Z,100.00
2019-01-12T23:47:08.129Z,100.00
2019-01-12T23:49:39.682Z,100.00
2019-01-12T23:52:11.227Z,100.00
2019-01-12T23:54:42.726Z,100.00
2019-01-12T23:57:14.258Z,100.00
2019-01-12T23:59:45.852Z,100.00
